Home   Weather   USA   Santa Maria   Past weeks
Flag for USA

Past Weather in Santa Maria, California, USA — Yesterday and Last 2 Weeks

Currently: 48 °F. Passing clouds. (Weather station: Santa Maria Public Airport, USA). See more current weather

Past Weather in Santa Maria — Graph

°F

Santa Maria Temperature Yesterday

Maximum temperature yesterday: 61 °F (at 11:51 am)
Minimum temperature yesterday: 37 °F (at 6:51 am)
Average temperature yesterday: 47 °F

High & Low Weather Summary for the Past Weeks

 TemperatureHumidityPressure
High78 °F (Feb 23, 12:51 pm)100% (Feb 19, 9:02 pm)30.38 "Hg (Feb 19, 9:02 pm)
Low36 °F (Mar 1, 4:51 am)10% (Mar 1, 12:51 pm)29.78 "Hg (Mar 3, 3:51 am)
Average52 °F61%30.14 "Hg
* Reported Feb 18 11:51 pm — Mar 5 11:51 pm, Santa Maria. Weather by CustomWeather, © 2021

Note: Actual official high and low records may vary slightly from our data, if they occured in-between our weather recording intervals... More about our weather records

Santa Maria Weather History for the Previous 24 Hours

Scroll right to see more
 ConditionsComfort  
Time TempWeatherWind HumidityBarometerVisibility
11:51 pm
Fri, Mar 5
48 °FFog.N/A89%30.14 "Hg5 mi
11:01 pm47 °FFog.No wind90%30.14 "Hg6 mi
10:14 pm47 °FMostly cloudy.N/A83%30.13 "Hg9 mi
9:51 pm45 °FPassing clouds.No wind86%30.13 "Hg9 mi
9:21 pm46 °FPassing clouds.N/A83%30.12 "Hg10 mi
8:51 pm47 °FClear.3 mph83%30.11 "Hg10 mi
7:51 pm49 °FClear.No wind86%30.09 "Hg10 mi
6:51 pm50 °FClear.5 mph83%30.10 "Hg10 mi
5:51 pm53 °FSunny.5 mph77%30.10 "Hg10 mi
4:51 pm56 °FSunny.14 mph70%30.11 "Hg10 mi
3:51 pm57 °FSunny.16 mph64%30.11 "Hg10 mi
2:51 pm60 °FSunny.15 mph62%30.11 "Hg10 mi
1:51 pm60 °FSunny.13 mph58%30.13 "Hg10 mi
12:51 pm60 °FSunny.10 mph62%30.15 "Hg10 mi
11:51 am61 °FSunny.9 mph58%30.18 "Hg10 mi
10:51 am58 °FSunny.5 mph58%30.19 "Hg10 mi
9:51 am54 °FSunny.3 mph69%30.20 "Hg10 mi
8:51 am51 °FSunny.No wind74%30.22 "Hg10 mi
7:51 am44 °FSunny.No wind93%30.24 "Hg7 mi
7:29 am41 °FSunny.No wind93%30.23 "Hg7 mi
7:00 am39 °FFog.No wind89%30.22 "Hg2 mi
6:51 am37 °FPassing clouds.No wind93%30.24 "Hg7 mi
5:51 am39 °FClear.No wind89%30.24 "Hg9 mi
4:51 am38 °FClear.N/A93%30.23 "Hg10 mi
3:51 am40 °FClear.N/A89%30.23 "Hg9 mi
2:51 am40 °FClear.3 mph93%30.24 "Hg7 mi
2:37 am38 °FPassing clouds.3 mph97%30.23 "Hg7 mi
2:20 am40 °FFog.5 mph93%30.23 "Hg2 mi
1:51 am41 °FFog.5 mph89%30.25 "Hg0 mi
1:40 am40 °FFog.3 mph93%30.25 "Hg0 mi
1:29 am41 °FFog.5 mph89%30.25 "Hg0 mi
1:01 am42 °FFog.No wind89%30.25 "Hg0 mi
Weather by CustomWeather, © 2021

See weather overview